createdAt,value
2023-01-28T00:01:20.035Z,17.30
2023-01-28T00:03:50.144Z,17.30
2023-01-28T00:06:18.798Z,15.07
2023-01-28T00:08:46.031Z,17.43
2023-01-28T00:11:13.550Z,15.50
2023-01-28T00:13:40.736Z,16.40
2023-01-28T00:16:09.012Z,17.20
2023-01-28T00:18:36.290Z,15.97
2023-01-28T00:21:04.346Z,18.17
2023-01-28T00:23:32.627Z,19.90
2023-01-28T00:26:00.171Z,17.33
2023-01-28T00:28:27.346Z,19.10
2023-01-28T00:30:54.669Z,17.67
2023-01-28T00:33:21.798Z,17.13
2023-01-28T00:35:49.013Z,14.17
2023-01-28T00:38:16.418Z,17.80
2023-01-28T00:40:43.571Z,19.40
2023-01-28T00:43:10.744Z,18.03
2023-01-28T00:45:39.034Z,16.67
2023-01-28T00:48:06.785Z,16.67
2023-01-28T00:50:33.897Z,20.07
2023-01-28T00:53:01.443Z,17.47
2023-01-28T00:55:28.612Z,17.30
2023-01-28T00:57:55.723Z,16.60
2023-01-28T01:00:27.267Z,17.77
2023-01-28T01:02:54.479Z,15.00
2023-01-28T01:05:21.602Z,15.20
2023-01-28T01:07:48.746Z,16.00
2023-01-28T01:10:16.721Z,15.17
2023-01-28T01:12:43.840Z,15.87
2023-01-28T01:15:11.190Z,14.80
2023-01-28T01:17:38.855Z,15.23
2023-01-28T01:20:06.521Z,17.60
2023-01-28T01:22:34.759Z,17.63
2023-01-28T01:25:01.992Z,18.43
2023-01-28T01:27:29.102Z,18.67
2023-01-28T01:29:56.365Z,16.83
2023-01-28T01:32:23.596Z,18.00
2023-01-28T01:34:50.730Z,20.87
2023-01-28T01:37:17.909Z,18.07
2023-01-28T01:39:45.050Z,17.93
2023-01-28T01:42:12.853Z,16.73
2023-01-28T01:44:59.774Z,17.37
2023-01-28T01:47:26.894Z,18.67
2023-01-28T01:49:54.277Z,17.07
2023-01-28T01:52:22.729Z,17.57
2023-01-28T01:54:50.729Z,15.90
2023-01-28T01:57:18.126Z,15.93
2023-01-28T01:59:45.291Z,15.43
2023-01-28T02:02:12.825Z,15.97
2023-01-28T02:04:40.677Z,18.03
2023-01-28T02:07:08.524Z,16.87
2023-01-28T02:09:36.348Z,18.47
2023-01-28T02:12:06.409Z,18.57
2023-01-28T02:14:34.790Z,17.30
2023-01-28T02:17:02.049Z,18.03
2023-01-28T02:19:34.016Z,19.63
2023-01-28T02:22:01.223Z,17.23
2023-01-28T02:24:28.352Z,17.47
2023-01-28T02:27:14.176Z,18.13
2023-01-28T02:29:47.423Z,18.03
2023-01-28T02:32:14.601Z,18.03
2023-01-28T02:34:44.196Z,17.17
2023-01-28T02:37:14.419Z,16.43
2023-01-28T02:39:46.414Z,15.97
2023-01-28T02:42:16.407Z,17.97
2023-01-28T02:44:43.510Z,17.97
2023-01-28T02:47:29.868Z,18.20
2023-01-28T02:49:57.411Z,17.53
2023-01-28T02:52:46.116Z,16.80
2023-01-28T02:55:24.921Z,17.30
2023-01-28T02:57:59.320Z,16.13
2023-01-28T03:00:29.553Z,18.57
2023-01-28T03:03:02.535Z,18.47
2023-01-28T03:05:29.751Z,17.90
2023-01-28T03:07:56.887Z,17.70
2023-01-28T03:10:24.910Z,16.33
2023-01-28T03:13:14.537Z,17.50
2023-01-28T03:16:04.501Z,17.27
2023-01-28T03:18:52.206Z,16.10
2023-01-28T03:21:40.319Z,16.30
2023-01-28T03:24:27.207Z,16.50
2023-01-28T03:27:13.031Z,16.37
2023-01-28T03:29:58.800Z,17.03
2023-01-28T03:32:44.389Z,16.60
2023-01-28T03:35:29.940Z,15.57
2023-01-28T03:38:00.043Z,19.00
2023-01-28T03:40:27.933Z,17.73
2023-01-28T03:42:56.782Z,19.13
2023-01-28T03:45:24.040Z,18.33
2023-01-28T03:47:51.221Z,18.47
2023-01-28T03:50:18.404Z,17.00
2023-01-28T03:52:45.560Z,19.53
2023-01-28T03:55:15.800Z,17.80
2023-01-28T03:57:44.767Z,17.23
2023-01-28T04:00:12.302Z,16.23
2023-01-28T04:02:40.206Z,17.43
2023-01-28T04:05:12.938Z,17.30
2023-01-28T04:07:40.457Z,16.97
2023-01-28T04:10:08.754Z,16.33
2023-01-28T04:12:37.875Z,15.17
2023-01-28T04:15:15.535Z,16.90
2023-01-28T04:17:46.705Z,16.43
2023-01-28T04:20:13.876Z,17.10
2023-01-28T04:22:41.088Z,16.73
2023-01-28T04:25:08.484Z,17.67
2023-01-28T04:27:35.647Z,19.43
2023-01-28T04:30:02.779Z,15.63
2023-01-28T04:32:29.977Z,17.40
2023-01-28T04:34:57.079Z,20.53
2023-01-28T04:37:24.255Z,18.07
2023-01-28T04:39:51.406Z,19.53
2023-01-28T04:42:18.594Z,17.53
2023-01-28T04:44:45.705Z,16.70
2023-01-28T04:47:12.867Z,16.47
2023-01-28T04:49:39.978Z,16.07
2023-01-28T04:52:07.225Z,15.17
2023-01-28T04:54:34.419Z,15.63
2023-01-28T04:57:01.551Z,15.87
2023-01-28T04:59:28.657Z,16.00
2023-01-28T05:01:55.830Z,14.50
2023-01-28T05:04:22.974Z,16.07
2023-01-28T05:06:50.098Z,15.43
2023-01-28T05:09:17.274Z,16.67
2023-01-28T05:11:44.404Z,15.90
2023-01-28T05:14:11.542Z,17.60
2023-01-28T05:16:38.749Z,16.77
2023-01-28T05:19:05.882Z,15.77
2023-01-28T05:21:33.008Z,15.47
2023-01-28T05:24:00.216Z,20.20
2023-01-28T05:26:27.457Z,19.63
2023-01-28T05:28:54.588Z,18.23
2023-01-28T05:31:21.786Z,20.27
2023-01-28T05:33:48.888Z,21.33
2023-01-28T05:36:16.033Z,18.13
2023-01-28T05:38:43.168Z,18.03
2023-01-28T05:41:10.311Z,18.50
2023-01-28T05:43:37.481Z,16.10
2023-01-28T05:46:04.731Z,17.57
2023-01-28T05:48:31.923Z,15.63
2023-01-28T05:50:59.109Z,15.50
2023-01-28T05:53:26.292Z,15.13
2023-01-28T05:55:53.529Z,15.40
2023-01-28T05:58:21.113Z,28.10
2023-01-28T06:00:48.287Z,18.30
2023-01-28T06:03:15.412Z,14.77
2023-01-28T06:05:42.528Z,15.37
2023-01-28T06:08:10.278Z,16.03
2023-01-28T06:10:37.454Z,14.30
2023-01-28T06:13:04.601Z,16.37
2023-01-28T06:15:31.935Z,15.70
2023-01-28T06:17:59.238Z,16.37
2023-01-28T06:20:26.420Z,17.10
2023-01-28T06:22:53.728Z,14.50
2023-01-28T06:25:20.863Z,16.50
2023-01-28T06:27:47.968Z,14.97
2023-01-28T06:30:15.562Z,17.17
2023-01-28T06:32:42.950Z,16.50
2023-01-28T06:35:10.338Z,17.57
2023-01-28T06:37:37.512Z,21.27
2023-01-28T06:40:05.874Z,22.00
2023-01-28T06:42:32.993Z,35.10
2023-01-28T06:45:00.150Z,19.13
2023-01-28T06:47:27.274Z,19.57
2023-01-28T06:49:54.384Z,21.03
2023-01-28T06:52:21.555Z,20.50
2023-01-28T06:54:48.682Z,16.60
2023-01-28T06:57:15.787Z,16.37
2023-01-28T06:59:42.983Z,16.03
2023-01-28T07:02:10.661Z,17.77
2023-01-28T07:04:37.793Z,17.93
2023-01-28T07:07:04.935Z,19.30
2023-01-28T07:09:32.052Z,17.47
2023-01-28T07:11:59.227Z,20.87
2023-01-28T07:14:26.390Z,19.60
2023-01-28T07:16:53.829Z,17.10
2023-01-28T07:19:20.995Z,20.33
2023-01-28T07:21:48.145Z,24.37
2023-01-28T07:24:15.349Z,30.17
2023-01-28T07:26:42.491Z,22.30
2023-01-28T07:29:09.682Z,17.77
2023-01-28T07:31:36.922Z,22.90
2023-01-28T07:34:04.066Z,18.03
2023-01-28T07:36:31.240Z,16.40
2023-01-28T07:38:58.361Z,16.40
2023-01-28T07:41:25.476Z,14.37
2023-01-28T07:43:52.653Z,18.17
2023-01-28T07:46:19.832Z,17.50
2023-01-28T07:48:46.960Z,17.80
2023-01-28T07:51:14.110Z,20.10
2023-01-28T07:53:41.322Z,19.43
2023-01-28T07:56:08.569Z,22.30
2023-01-28T07:58:35.795Z,18.37
2023-01-28T08:01:03.010Z,18.07
2023-01-28T08:03:30.225Z,14.90
2023-01-28T08:05:57.905Z,16.37
2023-01-28T08:08:25.237Z,13.90
2023-01-28T08:10:52.653Z,16.70
2023-01-28T08:13:20.054Z,15.57
2023-01-28T08:15:47.229Z,12.80
2023-01-28T08:18:14.725Z,14.70
2023-01-28T08:20:43.547Z,13.90
2023-01-28T08:23:14.742Z,12.80
2023-01-28T08:25:41.899Z,11.20
2023-01-28T08:28:09.185Z,20.37
2023-01-28T08:30:38.071Z,17.13
2023-01-28T08:33:05.602Z,23.07
2023-01-28T08:35:32.763Z,21.30
2023-01-28T08:38:00.403Z,18.70
2023-01-28T08:40:27.577Z,18.87
2023-01-28T08:42:54.924Z,17.17
2023-01-28T08:45:22.600Z,17.20
2023-01-28T08:47:50.585Z,19.20
2023-01-28T08:50:18.280Z,20.53
2023-01-28T08:52:45.891Z,17.43
2023-01-28T08:55:13.029Z,16.73
2023-01-28T08:57:40.207Z,16.60
2023-01-28T09:00:07.689Z,15.57
2023-01-28T09:02:34.808Z,15.07
2023-01-28T09:05:01.981Z,14.53
2023-01-28T09:07:29.140Z,15.63
2023-01-28T09:09:56.259Z,13.93
2023-01-28T09:12:23.430Z,17.23
2023-01-28T09:14:50.560Z,15.83
2023-01-28T09:17:17.667Z,16.20
2023-01-28T09:19:44.824Z,18.97
2023-01-28T09:22:11.946Z,14.80
2023-01-28T09:24:39.170Z,19.40
2023-01-28T09:27:06.328Z,15.00
2023-01-28T09:29:37.320Z,18.77
2023-01-28T09:32:04.598Z,15.60
2023-01-28T09:34:31.779Z,12.53
2023-01-28T09:36:58.901Z,11.83
2023-01-28T09:39:28.418Z,11.73
2023-01-28T09:42:15.848Z,14.20
2023-01-28T09:44:55.058Z,32.13
2023-01-28T09:47:34.428Z,35.57
2023-01-28T09:50:03.350Z,18.30
2023-01-28T09:52:31.018Z,12.03
2023-01-28T09:55:05.747Z,11.83
2023-01-28T09:57:39.443Z,19.90
2023-01-28T10:00:25.804Z,12.67
2023-01-28T10:02:56.694Z,13.87
2023-01-28T10:05:27.724Z,12.57
2023-01-28T10:08:18.866Z,14.90
2023-01-28T10:10:48.204Z,14.77
2023-01-28T10:13:22.047Z,19.73
2023-01-28T10:15:59.109Z,15.87
2023-01-28T10:18:36.376Z,20.47
2023-01-28T10:21:07.134Z,13.47
2023-01-28T10:23:37.324Z,18.80
2023-01-28T10:26:05.475Z,17.17
2023-01-28T10:28:35.146Z,12.73
2023-01-28T10:31:02.294Z,12.77
2023-01-28T10:33:30.910Z,12.23
2023-01-28T10:35:58.108Z,15.87
2023-01-28T10:38:25.594Z,18.33
2023-01-28T10:40:52.732Z,17.20
2023-01-28T10:43:20.835Z,17.10
2023-01-28T10:45:53.756Z,14.10
2023-01-28T10:48:30.685Z,11.77
2023-01-28T10:51:02.679Z,12.93
2023-01-28T10:53:36.318Z,13.57
2023-01-28T10:56:03.664Z,15.07
2023-01-28T10:58:31.933Z,16.17
2023-01-28T11:01:00.577Z,14.37
2023-01-28T11:03:27.918Z,18.00
2023-01-28T11:05:55.433Z,16.50
2023-01-28T11:08:22.913Z,17.20
2023-01-28T11:10:50.065Z,24.53
2023-01-28T11:13:24.520Z,19.80
2023-01-28T11:15:55.580Z,17.60
2023-01-28T11:18:24.895Z,20.77
2023-01-28T11:20:53.492Z,20.83
2023-01-28T11:23:22.613Z,18.87
2023-01-28T11:25:49.787Z,20.57
2023-01-28T11:28:18.978Z,22.50
2023-01-28T11:30:50.247Z,22.77
2023-01-28T11:33:18.347Z,30.10
2023-01-28T11:35:55.176Z,27.57
2023-01-28T11:38:23.199Z,33.83
2023-01-28T11:40:51.950Z,50.30
2023-01-28T11:43:19.500Z,35.93
2023-01-28T11:45:53.077Z,23.53
2023-01-28T11:48:49.756Z,17.60
2023-01-28T11:51:22.572Z,17.33
2023-01-28T11:53:59.519Z,15.27
2023-01-28T11:56:27.270Z,12.03
2023-01-28T11:58:54.392Z,16.27
2023-01-28T12:01:40.408Z,21.90
2023-01-28T12:04:13.695Z,24.13
2023-01-28T12:06:47.240Z,42.67
2023-01-28T12:09:17.521Z,46.30
2023-01-28T12:12:11.892Z,40.13
2023-01-28T12:14:39.020Z,46.47
2023-01-28T12:17:09.368Z,46.10
2023-01-28T12:19:40.069Z,107.93
2023-01-28T12:22:39.561Z,62.47
2023-01-28T12:25:06.704Z,49.87
2023-01-28T12:27:37.414Z,123.03
2023-01-28T12:30:07.718Z,116.87
2023-01-28T12:32:40.596Z,80.00
2023-01-28T12:35:08.025Z,63.13
2023-01-28T12:37:50.229Z,58.67
2023-01-28T12:40:20.247Z,78.43
2023-01-28T12:42:47.362Z,72.57
2023-01-28T12:45:26.722Z,69.60
2023-01-28T12:47:59.499Z,54.50
2023-01-28T12:50:28.612Z,41.17
2023-01-28T12:53:03.642Z,42.70
2023-01-28T12:56:03.361Z,55.17
2023-01-28T12:58:40.540Z,37.93
2023-01-28T13:01:12.109Z,30.87
2023-01-28T13:03:41.106Z,28.13
2023-01-28T13:06:28.737Z,33.80
2023-01-28T13:09:03.260Z,34.80
2023-01-28T13:11:35.010Z,23.93
2023-01-28T13:14:02.397Z,35.53
2023-01-28T13:16:37.271Z,30.60
2023-01-28T13:19:06.082Z,28.27
2023-01-28T13:21:47.680Z,31.43
2023-01-28T13:24:16.017Z,23.83
2023-01-28T13:26:52.908Z,26.40
2023-01-28T13:29:26.089Z,28.27
2023-01-28T13:31:54.344Z,32.80
2023-01-28T13:34:29.903Z,37.50
2023-01-28T13:36:57.345Z,32.07
2023-01-28T13:39:24.989Z,25.70
2023-01-28T13:41:52.136Z,24.73
2023-01-28T13:44:32.457Z,24.80
2023-01-28T13:47:08.705Z,20.93
2023-01-28T13:49:43.236Z,21.20
2023-01-28T13:52:13.465Z,19.93
2023-01-28T13:54:44.997Z,25.57
2023-01-28T13:57:21.227Z,26.70
2023-01-28T13:59:55.811Z,23.47
2023-01-28T14:02:38.237Z,17.33
2023-01-28T14:05:23.904Z,14.60
2023-01-28T14:07:57.712Z,36.83
2023-01-28T14:10:24.853Z,27.27
2023-01-28T14:13:01.146Z,20.37
2023-01-28T14:15:37.200Z,22.47
2023-01-28T14:18:04.404Z,25.53
2023-01-28T14:20:37.554Z,20.10
2023-01-28T14:23:05.861Z,21.60
2023-01-28T14:25:37.733Z,20.40
2023-01-28T14:28:05.152Z,17.77
2023-01-28T14:30:41.333Z,25.13
2023-01-28T14:33:08.617Z,22.10
2023-01-28T14:35:35.873Z,20.30
2023-01-28T14:38:06.886Z,21.67
2023-01-28T14:40:34.009Z,16.77
2023-01-28T14:43:01.127Z,16.60
2023-01-28T14:45:34.443Z,22.90
2023-01-28T14:48:07.395Z,23.77
2023-01-28T14:50:43.470Z,18.70
2023-01-28T14:53:16.352Z,17.23
2023-01-28T14:55:53.537Z,17.63
2023-01-28T14:58:21.957Z,23.73
2023-01-28T15:00:55.909Z,29.67
2023-01-28T15:03:25.163Z,23.57
2023-01-28T15:06:13.608Z,26.20
2023-01-28T15:08:40.813Z,27.17
2023-01-28T15:11:14.675Z,24.73
2023-01-28T15:13:42.611Z,25.43
2023-01-28T15:16:14.951Z,26.47
2023-01-28T15:18:42.352Z,36.63
2023-01-28T15:21:09.488Z,36.03
2023-01-28T15:23:37.329Z,27.93
2023-01-28T15:26:08.204Z,19.63
2023-01-28T15:28:36.927Z,18.83
2023-01-28T15:31:04.226Z,23.60
2023-01-28T15:33:31.725Z,32.30
2023-01-28T15:35:59.351Z,24.77
2023-01-28T15:38:27.577Z,23.57
2023-01-28T15:40:55.989Z,36.60
2023-01-28T15:43:24.054Z,30.43
2023-01-28T15:45:55.334Z,37.90
2023-01-28T15:48:23.103Z,48.20
2023-01-28T15:50:50.247Z,26.10
2023-01-28T15:53:17.401Z,39.43
2023-01-28T15:55:45.098Z,26.40
2023-01-28T15:58:15.309Z,30.53
2023-01-28T16:00:42.589Z,50.60
2023-01-28T16:03:10.065Z,43.90
2023-01-28T16:05:43.080Z,27.67
2023-01-28T16:08:11.549Z,27.47
2023-01-28T16:10:38.666Z,29.30
2023-01-28T16:13:11.900Z,28.70
2023-01-28T16:15:39.382Z,29.70
2023-01-28T16:18:06.557Z,24.80
2023-01-28T16:20:33.752Z,19.50
2023-01-28T16:23:01.549Z,19.37
2023-01-28T16:25:28.855Z,19.37
2023-01-28T16:27:56.417Z,16.40
2023-01-28T16:30:23.542Z,16.03
2023-01-28T16:32:50.683Z,14.73
2023-01-28T16:35:21.909Z,16.93
2023-01-28T16:37:49.276Z,16.00
2023-01-28T16:40:19.462Z,14.83
2023-01-28T16:42:48.507Z,15.30
2023-01-28T16:45:23.204Z,17.67
2023-01-28T16:47:50.688Z,17.70
2023-01-28T16:50:17.954Z,17.40
2023-01-28T16:52:45.399Z,21.67
2023-01-28T16:55:16.752Z,19.80
2023-01-28T16:57:44.192Z,33.23
2023-01-28T17:00:19.138Z,82.90
2023-01-28T17:02:46.290Z,90.33
2023-01-28T17:05:15.240Z,85.67
2023-01-28T17:07:42.881Z,40.50
2023-01-28T17:10:10.481Z,29.20
2023-01-28T17:12:37.588Z,28.80
2023-01-28T17:15:04.898Z,22.43
2023-01-28T17:17:32.020Z,22.37
2023-01-28T17:19:59.146Z,79.33
2023-01-28T17:22:26.290Z,44.63
2023-01-28T17:24:53.435Z,65.63
2023-01-28T17:27:20.561Z,40.37
2023-01-28T17:29:47.711Z,33.07
2023-01-28T17:32:14.874Z,41.33
2023-01-28T17:34:42.087Z,41.30
2023-01-28T17:37:09.289Z,38.77
2023-01-28T17:39:36.486Z,28.70
2023-01-28T17:42:03.605Z,28.33
2023-01-28T17:44:30.785Z,26.87
2023-01-28T17:46:57.912Z,21.93
2023-01-28T17:49:25.156Z,20.87
2023-01-28T17:51:53.161Z,18.83
2023-01-28T17:54:20.359Z,18.13
2023-01-28T17:56:47.473Z,19.03
2023-01-28T17:59:17.561Z,19.47
2023-01-28T18:01:44.994Z,23.10
2023-01-28T18:04:13.134Z,25.87
2023-01-28T18:06:40.373Z,20.57
2023-01-28T18:09:09.074Z,20.40
2023-01-28T18:11:36.239Z,23.03
2023-01-28T18:14:03.430Z,22.50
2023-01-28T18:16:30.623Z,25.83
2023-01-28T18:18:57.738Z,27.70
2023-01-28T18:21:27.678Z,29.70
2023-01-28T18:23:54.865Z,29.83
2023-01-28T18:26:23.736Z,31.10
2023-01-28T18:28:51.245Z,30.40
2023-01-28T18:31:19.363Z,29.50
2023-01-28T18:33:47.429Z,29.67
2023-01-28T18:36:14.864Z,30.00
2023-01-28T18:38:42.135Z,29.53
2023-01-28T18:41:09.290Z,29.00
2023-01-28T18:43:36.467Z,32.50
2023-01-28T18:46:09.808Z,39.57
2023-01-28T18:48:37.056Z,40.70
2023-01-28T18:51:04.267Z,53.37
2023-01-28T18:53:31.540Z,52.80
2023-01-28T18:56:01.313Z,44.90
2023-01-28T18:58:28.447Z,36.60
2023-01-28T19:00:55.675Z,36.57
2023-01-28T19:03:23.021Z,39.47
2023-01-28T19:05:50.127Z,39.10
2023-01-28T19:08:17.605Z,35.30
2023-01-28T19:10:44.796Z,36.27
2023-01-28T19:13:11.920Z,35.87
2023-01-28T19:15:39.026Z,43.43
2023-01-28T19:18:06.236Z,43.83
2023-01-28T19:20:33.428Z,49.97
2023-01-28T19:23:00.636Z,44.37
2023-01-28T19:25:27.816Z,38.83
2023-01-28T19:27:55.066Z,40.77
2023-01-28T19:30:22.258Z,37.87
2023-01-28T19:32:49.457Z,33.77
2023-01-28T19:35:17.204Z,39.13
2023-01-28T19:37:44.561Z,38.13
2023-01-28T19:40:12.019Z,41.63
2023-01-28T19:42:39.349Z,47.60
2023-01-28T19:45:06.660Z,47.43
2023-01-28T19:47:33.850Z,37.57
2023-01-28T19:50:01.147Z,35.07
2023-01-28T19:52:28.322Z,36.57
2023-01-28T19:54:55.508Z,34.70
2023-01-28T19:57:22.737Z,33.87
2023-01-28T19:59:49.849Z,33.00
2023-01-28T20:02:17.035Z,33.87
2023-01-28T20:04:59.772Z,37.70
2023-01-28T20:07:27.974Z,37.23
2023-01-28T20:09:55.127Z,37.00
2023-01-28T20:12:22.237Z,35.77
2023-01-28T20:14:49.477Z,33.23
2023-01-28T20:17:16.702Z,37.53
2023-01-28T20:19:43.840Z,46.67
2023-01-28T20:22:11.139Z,45.53
2023-01-28T20:24:38.300Z,46.17
2023-01-28T20:27:05.434Z,45.20
2023-01-28T20:29:32.621Z,45.63
2023-01-28T20:32:15.484Z,47.60
2023-01-28T20:34:44.896Z,51.03
2023-01-28T20:37:12.028Z,51.33
2023-01-28T20:39:39.138Z,47.03
2023-01-28T20:42:09.276Z,44.00
2023-01-28T20:44:36.426Z,47.53
2023-01-28T20:47:03.631Z,48.67
2023-01-28T20:49:30.766Z,45.73
2023-01-28T20:51:57.938Z,46.90
2023-01-28T20:54:25.580Z,54.27
2023-01-28T20:56:53.059Z,59.03
2023-01-28T20:59:20.267Z,54.80
2023-01-28T21:01:47.397Z,53.80
2023-01-28T21:04:15.215Z,60.37
2023-01-28T21:06:42.419Z,61.77
2023-01-28T21:09:10.199Z,64.23
2023-01-28T21:11:37.380Z,74.13
2023-01-28T21:14:04.526Z,68.80
2023-01-28T21:16:31.846Z,62.07
2023-01-28T21:18:58.989Z,55.00
2023-01-28T21:21:26.930Z,51.73
2023-01-28T21:23:56.777Z,50.73
2023-01-28T21:26:24.298Z,47.50
2023-01-28T21:28:51.534Z,63.10
2023-01-28T21:31:22.405Z,59.53
2023-01-28T21:33:54.878Z,56.67
2023-01-28T21:36:22.126Z,57.53
2023-01-28T21:38:56.161Z,56.73
2023-01-28T21:41:23.378Z,55.50
2023-01-28T21:43:54.125Z,55.20
2023-01-28T21:46:21.904Z,56.27
2023-01-28T21:48:49.127Z,57.87
2023-01-28T21:51:35.093Z,58.23
2023-01-28T21:54:02.663Z,58.70
2023-01-28T21:56:29.805Z,73.27
2023-01-28T21:59:15.622Z,61.20
2023-01-28T22:01:45.699Z,58.60
2023-01-28T22:04:13.142Z,54.03
2023-01-28T22:06:42.210Z,54.37
2023-01-28T22:09:13.856Z,54.13
2023-01-28T22:11:41.471Z,49.10
2023-01-28T22:14:08.738Z,49.30
2023-01-28T22:16:35.994Z,50.43
2023-01-28T22:19:03.230Z,51.30
2023-01-28T22:21:31.194Z,62.33
2023-01-28T22:23:58.412Z,64.93
2023-01-28T22:26:25.636Z,56.30
2023-01-28T22:28:52.793Z,48.73
2023-01-28T22:31:20.029Z,46.83
2023-01-28T22:33:47.286Z,46.63
2023-01-28T22:36:15.778Z,46.77
2023-01-28T22:38:43.490Z,47.57
2023-01-28T22:41:11.605Z,48.23
2023-01-28T22:43:38.753Z,47.00
2023-01-28T22:46:06.232Z,43.53
2023-01-28T22:48:33.470Z,41.73
2023-01-28T22:51:07.575Z,44.13
2023-01-28T22:53:34.692Z,49.97
2023-01-28T22:56:02.643Z,42.77
2023-01-28T22:58:31.509Z,37.83
2023-01-28T23:00:59.097Z,37.57
2023-01-28T23:03:26.254Z,43.57
2023-01-28T23:05:53.398Z,44.50
2023-01-28T23:08:20.547Z,50.10
2023-01-28T23:10:50.023Z,46.30
2023-01-28T23:13:18.187Z,43.37
2023-01-28T23:16:07.168Z,38.67
2023-01-28T23:18:53.221Z,39.93
2023-01-28T23:21:39.627Z,47.20
2023-01-28T23:24:19.618Z,46.03
2023-01-28T23:26:53.251Z,47.87
2023-01-28T23:29:23.794Z,46.23
2023-01-28T23:31:52.519Z,47.13
2023-01-28T23:34:19.688Z,47.53
2023-01-28T23:36:46.964Z,49.20
2023-01-28T23:39:14.145Z,47.20
2023-01-28T23:41:41.263Z,42.13
2023-01-28T23:44:08.394Z,41.27
2023-01-28T23:46:39.882Z,42.23
2023-01-28T23:49:08.800Z,43.07
2023-01-28T23:51:36.040Z,39.53
2023-01-28T23:54:03.164Z,36.70
2023-01-28T23:56:30.367Z,37.67
2023-01-28T23:58:57.601Z,36.80
